Time;durP1;ratioP1;P1;durP2;ratioP2;P2;SDS_P1;SDS_P2;PMS_P1;PMS_P2;Temp;Humidity;BMP_temperature;BMP_pressure;BME280_temperature;BME280_humidity;BME280_pressure;Samples;Min_cycle;Max_cycle;Signal;HPM_P1;HPM_P2
2023/09/01 00:00:35;;;;;;;7.45;1.80;;;12.90;23.80;;;;;;5068712;28;20501;-71
2023/09/01 00:03:01;;;;;;;4.40;1.77;;;12.90;24.60;;;;;;5068142;28;20993;-71
2023/09/01 00:05:26;;;;;;;6.63;1.97;;;12.90;24.50;;;;;;5067709;28;20402;-71
2023/09/01 00:07:52;;;;;;;6.73;2.20;;;12.90;25.30;;;;;;5068840;28;20487;-71
2023/09/01 00:10:17;;;;;;;6.67;2.10;;;12.90;25.70;;;;;;5056482;28;20480;-71
2023/09/01 00:12:43;;;;;;;4.32;1.85;;;12.90;25.80;;;;;;5068481;28;20408;-70
2023/09/01 00:15:09;;;;;;;4.50;1.90;;;12.90;26.20;;;;;;5067591;28;20409;-70
2023/09/01 00:17:35;;;;;;;3.38;1.90;;;12.80;26.40;;;;;;5068002;28;20854;-70
2023/09/01 00:20:00;;;;;;;5.30;2.05;;;12.80;27.20;;;;;;5067459;28;20487;-71
2023/09/01 00:22:26;;;;;;;3.70;1.90;;;12.80;27.70;;;;;;5050276;28;20411;-71
2023/09/01 00:24:51;;;;;;;5.07;2.00;;;12.70;28.00;;;;;;5050485;28;20435;-71
2023/09/01 00:27:17;;;;;;;4.63;2.13;;;12.70;28.80;;;;;;5068028;28;20403;-71
2023/09/01 00:29:43;;;;;;;5.85;1.90;;;12.70;29.70;;;;;;5067670;28;20407;-71
2023/09/01 00:32:08;;;;;;;5.33;2.07;;;12.70;30.60;;;;;;5075810;28;20426;-71
2023/09/01 00:34:34;;;;;;;5.30;2.00;;;12.70;30.40;;;;;;5085503;28;21013;-71
2023/09/01 00:36:59;;;;;;;4.33;1.90;;;12.70;30.70;;;;;;5067356;28;20399;-71
2023/09/01 00:39:25;;;;;;;5.68;2.10;;;12.70;31.10;;;;;;5066040;28;20431;-71
2023/09/01 00:41:51;;;;;;;5.60;2.07;;;12.60;31.20;;;;;;5055800;28;20557;-71
2023/09/01 00:44:16;;;;;;;6.55;2.53;;;12.60;31.60;;;;;;5067321;28;20824;-71
2023/09/01 00:46:46;;;;;;;6.23;2.10;;;12.60;32.50;;;;;;5068177;28;20494;-71
2023/09/01 00:49:13;;;;;;;6.38;2.00;;;12.60;32.70;;;;;;5066130;28;20956;-71
2023/09/01 00:51:39;;;;;;;4.53;2.03;;;12.60;32.80;;;;;;5068365;28;20434;-71
2023/09/01 00:54:05;;;;;;;5.05;2.20;;;12.60;33.60;;;;;;5070718;28;20407;-71
2023/09/01 00:56:31;;;;;;;5.40;2.20;;;12.50;33.30;;;;;;5072196;28;20414;-71
2023/09/01 00:58:57;;;;;;;9.30;2.10;;;12.40;34.10;;;;;;5071915;28;20409;-71
2023/09/01 01:01:22;;;;;;;5.05;2.20;;;12.40;34.70;;;;;;5072024;28;20399;-71
2023/09/01 01:03:51;;;;;;;6.88;2.53;;;12.40;35.40;;;;;;5072398;28;20410;-71
2023/09/01 01:07:06;;;;;;;4.28;2.25;;;12.40;36.30;;;;;;5071173;28;20408;-71
2023/09/01 01:09:44;;;;;;;5.32;2.80;;;12.40;36.40;;;;;;5048457;28;20439;-71
2023/09/01 01:12:29;;;;;;;5.85;2.42;;;12.40;37.30;;;;;;5069481;28;20431;-71
2023/09/01 01:14:56;;;;;;;4.47;2.50;;;12.30;37.40;;;;;;5081430;28;20402;-71
2023/09/01 01:17:23;;;;;;;4.70;2.53;;;12.30;38.20;;;;;;5073974;28;20422;-71
2023/09/01 01:19:52;;;;;;;5.05;2.60;;;12.30;38.70;;;;;;5078484;28;20412;-71
2023/09/01 01:22:38;;;;;;;5.82;2.60;;;12.30;39.10;;;;;;5060160;28;20490;-71
2023/09/01 01:25:10;;;;;;;5.82;2.80;;;12.30;40.00;;;;;;5078014;28;20446;-71
2023/09/01 01:27:37;;;;;;;6.43;2.53;;;12.20;40.60;;;;;;5072649;28;20408;-71
2023/09/01 01:30:05;;;;;;;6.68;2.95;;;12.20;40.80;;;;;;5074056;28;20399;-71
2023/09/01 01:32:31;;;;;;;4.25;2.80;;;12.20;41.40;;;;;;5072329;28;20461;-71
2023/09/01 01:35:28;;;;;;;7.45;2.90;;;12.20;42.10;;;;;;5075828;28;20436;-71
2023/09/01 01:38:03;;;;;;;6.68;2.78;;;12.20;43.10;;;;;;5077771;28;20501;-71
2023/09/01 01:40:30;;;;;;;6.25;2.97;;;12.20;43.40;;;;;;5072271;28;20822;-71
2023/09/01 01:43:00;;;;;;;9.75;2.75;;;12.20;43.70;;;;;;5060535;28;20500;-71
2023/09/01 01:45:26;;;;;;;5.65;2.80;;;12.10;44.40;;;;;;5052675;28;20495;-71
2023/09/01 01:47:53;;;;;;;5.68;3.08;;;12.10;44.50;;;;;;5078668;28;20411;-71
2023/09/01 01:50:18;;;;;;;5.13;3.10;;;12.10;44.70;;;;;;5059653;28;20483;-71
2023/09/01 01:52:44;;;;;;;5.05;2.67;;;12.10;45.00;;;;;;5064989;28;20408;-71
2023/09/01 01:55:10;;;;;;;4.97;2.93;;;12.10;45.10;;;;;;5070159;28;20431;-71
2023/09/01 01:57:38;;;;;;;6.38;3.15;;;12.10;45.00;;;;;;5070632;28;20400;-71
2023/09/01 02:00:11;;;;;;;6.40;3.10;;;12.10;45.30;;;;;;5077232;28;20394;-71
2023/09/01 02:02:38;;;;;;;6.50;2.90;;;12.00;45.50;;;;;;5069649;28;20423;-71
2023/09/01 02:05:08;;;;;;;5.53;2.50;;;12.00;45.80;;;;;;5069863;28;20901;-71
2023/09/01 02:07:34;;;;;;;5.75;2.83;;;12.00;45.30;;;;;;5059446;28;20423;-71
2023/09/01 02:10:00;;;;;;;5.07;3.10;;;12.00;45.00;;;;;;5070471;28;20461;-71
2023/09/01 02:12:25;;;;;;;5.03;2.90;;;11.90;45.00;;;;;;5070195;28;20407;-71
2023/09/01 02:14:51;;;;;;;6.70;3.00;;;11.90;45.20;;;;;;5070378;28;20414;-71
2023/09/01 02:17:17;;;;;;;6.03;2.97;;;11.90;46.20;;;;;;5070492;28;20407;-71
2023/09/01 02:19:43;;;;;;;4.43;2.70;;;11.90;46.70;;;;;;5035989;28;20412;-71
2023/09/01 02:22:08;;;;;;;5.93;2.47;;;11.90;46.70;;;;;;5076718;28;20411;-71
2023/09/01 02:24:34;;;;;;;6.70;2.60;;;11.80;46.20;;;;;;5063413;28;20414;-71
2023/09/01 02:26:59;;;;;;;6.27;2.90;;;11.80;45.90;;;;;;5078842;28;20826;-71
2023/09/01 02:29:26;;;;;;;4.82;2.80;;;11.80;45.70;;;;;;5082145;28;20433;-71
2023/09/01 02:31:53;;;;;;;5.60;2.88;;;11.80;45.80;;;;;;5077638;28;21365;-71
2023/09/01 02:34:19;;;;;;;5.68;2.90;;;11.70;46.30;;;;;;5081853;28;20395;-71
2023/09/01 02:36:45;;;;;;;4.68;2.75;;;11.70;46.80;;;;;;5078599;28;20434;-71
2023/09/01 02:39:11;;;;;;;4.85;3.00;;;11.70;47.60;;;;;;5082374;28;20437;-71
2023/09/01 02:41:37;;;;;;;6.90;2.90;;;11.70;48.00;;;;;;5079047;28;20407;-71
2023/09/01 02:44:03;;;;;;;5.22;2.55;;;11.70;48.40;;;;;;5082695;28;20432;-71
2023/09/01 02:46:29;;;;;;;7.07;2.85;;;11.70;48.20;;;;;;5079164;28;20901;-71
2023/09/01 02:48:55;;;;;;;7.60;2.80;;;11.60;48.40;;;;;;5078677;28;20410;-71
2023/09/01 02:51:21;;;;;;;6.53;2.90;;;11.60;49.10;;;;;;5079103;28;20428;-71
2023/09/01 02:53:46;;;;;;;5.83;2.93;;;11.60;49.60;;;;;;5064361;28;20425;-71
2023/09/01 02:56:12;;;;;;;6.50;3.10;;;11.60;49.70;;;;;;5078722;28;20403;-70
2023/09/01 02:58:38;;;;;;;6.33;2.90;;;11.50;50.20;;;;;;5064930;28;20410;-71
2023/09/01 03:01:07;;;;;;;5.55;2.97;;;11.50;50.80;;;;;;5078943;28;20418;-71
2023/09/01 03:03:34;;;;;;;4.95;2.80;;;11.50;51.00;;;;;;5082566;28;20911;-71
2023/09/01 03:05:59;;;;;;;7.38;3.15;;;11.50;51.10;;;;;;5074368;28;20484;-71
2023/09/01 03:08:25;;;;;;;5.60;3.00;;;11.50;51.60;;;;;;5082993;28;20528;-71
2023/09/01 03:10:52;;;;;;;5.53;2.58;;;11.50;52.10;;;;;;5059040;28;20439;-71
2023/09/01 03:13:19;;;;;;;5.40;2.90;;;11.50;52.60;;;;;;5078183;28;20405;-71
2023/09/01 03:15:45;;;;;;;6.13;3.07;;;11.50;53.00;;;;;;5041795;28;20430;-71
2023/09/01 03:18:11;;;;;;;6.13;2.70;;;11.50;53.30;;;;;;5050120;28;20406;-71
2023/09/01 03:20:40;;;;;;;5.10;2.55;;;11.50;53.50;;;;;;5077431;28;20402;-71
2023/09/01 03:23:06;;;;;;;7.07;3.03;;;11.40;53.60;;;;;;5079918;28;20416;-71
2023/09/01 03:25:32;;;;;;;5.15;2.97;;;11.40;53.80;;;;;;5068755;28;21137;-71
2023/09/01 03:27:57;;;;;;;5.20;2.60;;;11.40;53.70;;;;;;5068560;28;20789;-71
2023/09/01 03:30:23;;;;;;;4.57;2.53;;;11.40;53.60;;;;;;5068085;28;20910;-71
2023/09/01 03:32:49;;;;;;;7.07;3.00;;;11.40;53.60;;;;;;5061243;28;20401;-71
2023/09/01 03:35:14;;;;;;;7.43;3.00;;;11.40;53.90;;;;;;5068295;28;20502;-71
2023/09/01 03:37:40;;;;;;;6.18;3.00;;;11.40;54.10;;;;;;5063638;28;20412;-71
2023/09/01 03:40:09;;;;;;;4.83;3.17;;;11.40;54.60;;;;;;5069448;28;20989;-71
2023/09/01 03:42:35;;;;;;;6.07;2.90;;;11.40;55.20;;;;;;5068939;28;20418;-71
2023/09/01 03:45:01;;;;;;;5.20;2.78;;;11.40;55.60;;;;;;5061906;28;20944;-71
2023/09/01 03:47:26;;;;;;;6.28;2.88;;;11.40;55.70;;;;;;5050241;28;20411;-71
2023/09/01 03:49:52;;;;;;;5.00;2.63;;;11.40;56.20;;;;;;5053011;28;20402;-71
2023/09/01 03:52:18;;;;;;;5.95;2.60;;;11.40;56.80;;;;;;5060873;28;21356;-71
2023/09/01 03:54:43;;;;;;;6.27;2.83;;;11.40;56.50;;;;;;5068384;28;20552;-71
2023/09/01 03:57:09;;;;;;;4.47;2.73;;;11.40;56.30;;;;;;5066852;28;20403;-71
2023/09/01 03:59:34;;;;;;;5.25;2.70;;;11.30;56.50;;;;;;5068376;28;20407;-71
2023/09/01 04:02:00;;;;;;;6.20;2.60;;;11.40;56.80;;;;;;5068320;28;20399;-71
2023/09/01 04:04:27;;;;;;;4.82;2.88;;;11.40;57.40;;;;;;5069792;28;20407;-71
2023/09/01 04:06:53;;;;;;;5.85;2.83;;;11.40;57.70;;;;;;5068380;28;20904;-71
2023/09/01 04:09:19;;;;;;;5.10;2.77;;;11.30;57.80;;;;;;5051832;28;20407;-71
2023/09/01 04:11:44;;;;;;;4.30;2.95;;;11.30;57.70;;;;;;5067935;28;20435;-71
2023/09/01 04:14:11;;;;;;;5.50;2.88;;;11.30;57.70;;;;;;5063542;28;20898;-71
2023/09/01 04:16:38;;;;;;;4.88;2.85;;;11.30;57.70;;;;;;5066480;28;20897;-71
2023/09/01 04:19:04;;;;;;;5.97;2.90;;;11.30;57.70;;;;;;5065797;28;20499;-71
2023/09/01 04:21:29;;;;;;;5.40;2.92;;;11.30;57.70;;;;;;5050141;28;20912;-71
2023/09/01 04:23:55;;;;;;;5.97;2.90;;;11.20;58.00;;;;;;5078454;28;20390;-71
2023/09/01 04:26:21;;;;;;;6.63;3.30;;;11.20;58.40;;;;;;5078391;28;20781;-71
2023/09/01 04:28:46;;;;;;;5.68;2.90;;;11.20;58.50;;;;;;5078206;28;20923;-71
2023/09/01 04:31:32;;;;;;;6.57;3.07;;;11.20;59.20;;;;;;5078257;28;20972;-70
2023/09/01 04:33:58;;;;;;;5.47;2.93;;;11.30;59.40;;;;;;5061110;28;20421;-71
2023/09/01 04:36:24;;;;;;;5.32;2.83;;;11.20;59.90;;;;;;5056484;28;20460;-71
2023/09/01 04:38:50;;;;;;;5.40;2.87;;;11.20;60.00;;;;;;5081606;28;20398;-71
2023/09/01 04:41:16;;;;;;;6.93;2.83;;;11.20;59.70;;;;;;5069308;28;20410;-71
2023/09/01 04:43:43;;;;;;;4.40;3.00;;;11.20;59.70;;;;;;5073119;28;20883;-71
2023/09/01 04:46:09;;;;;;;5.68;2.90;;;11.20;59.70;;;;;;5051268;28;20473;-71
2023/09/01 04:48:34;;;;;;;5.90;2.80;;;11.20;60.10;;;;;;5067307;28;20408;-71
2023/09/01 04:51:02;;;;;;;4.38;2.80;;;11.20;60.00;;;;;;5067722;28;20446;-71
2023/09/01 04:53:31;;;;;;;5.70;2.92;;;11.10;60.20;;;;;;5062068;28;20411;-71
2023/09/01 04:55:57;;;;;;;5.35;2.70;;;11.10;60.30;;;;;;5061322;28;20402;-71
2023/09/01 04:58:23;;;;;;;4.80;2.72;;;11.10;59.90;;;;;;5073662;28;20489;-71
2023/09/01 05:00:52;;;;;;;4.93;2.90;;;11.10;60.10;;;;;;5068042;28;20538;-71
2023/09/01 05:03:18;;;;;;;6.13;2.92;;;11.10;60.10;;;;;;5060442;28;20469;-71
2023/09/01 05:05:45;;;;;;;5.82;2.75;;;11.10;60.30;;;;;;5067090;28;20399;-71
2023/09/01 05:08:11;;;;;;;5.30;2.85;;;11.10;60.60;;;;;;5060442;28;20404;-72
2023/09/01 05:10:36;;;;;;;5.63;2.90;;;11.10;60.50;;;;;;5035941;28;20482;-71
2023/09/01 05:13:02;;;;;;;6.07;2.90;;;11.00;60.30;;;;;;5073424;28;20425;-71
2023/09/01 05:15:28;;;;;;;5.90;3.20;;;11.10;60.40;;;;;;5067134;28;20410;-71
2023/09/01 05:17:53;;;;;;;6.50;3.27;;;11.10;60.60;;;;;;5067396;28;20487;-69
2023/09/01 05:20:19;;;;;;;6.30;3.10;;;11.00;60.80;;;;;;5068144;28;20815;-70
2023/09/01 05:22:44;;;;;;;7.35;3.13;;;11.10;60.90;;;;;;5080825;28;20454;-70
2023/09/01 05:25:11;;;;;;;6.40;3.47;;;11.00;61.20;;;;;;5060781;28;20412;-71
2023/09/01 05:27:36;;;;;;;5.28;2.88;;;11.10;61.70;;;;;;5067731;28;20410;-71
2023/09/01 05:30:02;;;;;;;6.53;3.30;;;11.00;62.20;;;;;;5060245;28;20786;-70
2023/09/01 05:32:29;;;;;;;6.72;2.92;;;11.10;62.70;;;;;;5067155;28;20408;-71
2023/09/01 05:34:55;;;;;;;5.95;3.40;;;11.00;62.90;;;;;;5069444;28;20403;-71
2023/09/01 05:37:21;;;;;;;6.60;3.47;;;11.10;63.20;;;;;;5067625;28;20445;-71
2023/09/01 05:39:46;;;;;;;6.20;3.33;;;11.10;63.50;;;;;;5048451;28;20453;-71
2023/09/01 05:42:14;;;;;;;6.70;3.63;;;11.10;63.70;;;;;;5071009;28;20403;-71
2023/09/01 05:44:40;;;;;;;5.88;3.50;;;11.20;64.20;;;;;;5066295;28;20406;-71
2023/09/01 05:47:06;;;;;;;7.03;3.67;;;11.20;65.10;;;;;;5070546;28;20521;-71
2023/09/01 05:49:33;;;;;;;7.17;3.30;;;11.30;65.50;;;;;;5071065;28;20859;-71
2023/09/01 05:51:59;;;;;;;7.17;3.83;;;11.30;66.30;;;;;;5070954;28;20557;-71
2023/09/01 05:54:25;;;;;;;6.82;3.63;;;11.40;66.80;;;;;;5053099;28;20465;-72
2023/09/01 05:56:51;;;;;;;6.80;3.90;;;11.50;66.90;;;;;;5070770;28;20395;-71
2023/09/01 05:59:17;;;;;;;9.25;3.70;;;11.60;67.00;;;;;;5070566;28;20777;-71
2023/09/01 06:01:43;;;;;;;8.23;3.80;;;11.60;67.60;;;;;;5067130;28;20487;-71
2023/09/01 06:04:09;;;;;;;8.30;4.00;;;11.70;68.00;;;;;;5051432;28;20762;-71
2023/09/01 06:06:35;;;;;;;7.78;3.50;;;11.80;68.10;;;;;;5069917;28;20395;-71
2023/09/01 06:09:04;;;;;;;7.93;3.78;;;11.90;68.30;;;;;;5080549;28;20832;-72
2023/09/01 06:11:30;;;;;;;6.93;3.60;;;12.00;67.90;;;;;;5083646;28;20919;-71
2023/09/01 06:13:56;;;;;;;6.78;3.97;;;12.00;67.80;;;;;;5069346;28;20408;-71
2023/09/01 06:16:22;;;;;;;6.30;3.70;;;12.10;68.00;;;;;;5078731;28;20889;-71
2023/09/01 06:18:48;;;;;;;7.40;3.65;;;12.10;67.90;;;;;;5080180;28;20399;-71
2023/09/01 06:21:15;;;;;;;6.73;3.57;;;12.20;67.30;;;;;;5086266;28;20402;-71
2023/09/01 06:23:44;;;;;;;7.95;3.47;;;12.30;67.20;;;;;;5069140;28;20480;-72
2023/09/01 06:26:11;;;;;;;6.85;3.50;;;12.30;67.20;;;;;;5069401;28;20442;-72
2023/09/01 06:28:38;;;;;;;7.70;3.58;;;12.40;66.90;;;;;;5069420;28;20412;-71
2023/09/01 06:31:03;;;;;;;6.47;3.40;;;12.40;66.10;;;;;;5069705;28;20474;-71
2023/09/01 06:33:29;;;;;;;6.22;3.47;;;12.50;65.30;;;;;;5071139;28;20396;-71
2023/09/01 06:35:54;;;;;;;6.00;3.47;;;12.50;65.30;;;;;;5074870;28;20431;-71
2023/09/01 06:38:20;;;;;;;7.18;3.63;;;12.60;65.30;;;;;;5079527;28;20392;-71
2023/09/01 06:40:46;;;;;;;6.00;3.03;;;12.60;65.00;;;;;;5083521;28;20398;-71
2023/09/01 06:43:11;;;;;;;6.57;3.08;;;12.70;65.00;;;;;;5080076;28;20961;-71
2023/09/01 06:45:37;;;;;;;6.53;2.97;;;12.80;65.00;;;;;;5082976;28;20481;-71
2023/09/01 06:48:03;;;;;;;6.57;3.00;;;12.80;64.90;;;;;;5058952;28;20408;-71
2023/09/01 06:50:28;;;;;;;5.60;2.87;;;12.90;65.20;;;;;;5081178;28;20413;-71
2023/09/01 06:52:54;;;;;;;7.75;3.40;;;13.00;65.00;;;;;;5047077;28;20585;-72
2023/09/01 06:55:21;;;;;;;5.65;2.83;;;13.10;65.30;;;;;;5068565;28;20407;-71
2023/09/01 06:57:46;;;;;;;6.20;2.93;;;13.20;65.30;;;;;;5070532;28;20392;-71
2023/09/01 07:00:14;;;;;;;5.05;2.60;;;13.30;65.30;;;;;;5084614;28;20401;-71
2023/09/01 07:02:40;;;;;;;4.93;2.70;;;13.40;65.30;;;;;;5078860;28;20420;-71
2023/09/01 07:05:06;;;;;;;7.03;2.90;;;13.50;63.70;;;;;;5083714;28;20413;-71
2023/09/01 07:07:32;;;;;;;5.10;2.60;;;13.60;62.80;;;;;;5055610;28;20423;-71
2023/09/01 07:09:57;;;;;;;6.70;2.80;;;13.60;60.70;;;;;;5076570;28;20398;-71
2023/09/01 07:12:23;;;;;;;5.33;2.57;;;13.70;59.80;;;;;;5080166;28;20430;-71
2023/09/01 07:14:48;;;;;;;6.93;2.70;;;13.80;59.20;;;;;;5083902;28;20406;-71
2023/09/01 07:17:21;;;;;;;5.60;2.53;;;13.90;59.00;;;;;;5066286;28;20392;-72
2023/09/01 07:19:46;;;;;;;7.77;3.17;;;14.00;58.20;;;;;;5066116;28;20390;-72
2023/09/01 07:22:12;;;;;;;4.88;2.90;;;14.10;57.00;;;;;;5049257;28;20833;-72
2023/09/01 07:24:38;;;;;;;8.10;2.97;;;14.20;56.40;;;;;;5049870;28;20404;-71
2023/09/01 07:27:06;;;;;;;6.13;2.75;;;14.20;54.70;;;;;;5067787;28;20534;-71
2023/09/01 07:29:32;;;;;;;11.38;2.88;;;14.20;52.90;;;;;;5032632;28;20431;-72
2023/09/01 07:31:59;;;;;;;5.03;2.15;;;14.20;52.80;;;;;;5067239;28;20432;-72
2023/09/01 07:34:25;;;;;;;8.07;2.97;;;14.30;53.10;;;;;;5074527;28;20421;-72
2023/09/01 07:36:51;;;;;;;5.68;2.55;;;14.30;52.50;;;;;;5051727;28;20409;-72
2023/09/01 07:39:16;;;;;;;6.75;2.72;;;14.40;52.30;;;;;;5052484;28;20412;-72
2023/09/01 07:41:42;;;;;;;5.40;2.77;;;14.40;52.40;;;;;;5056708;28;20404;-71
2023/09/01 07:44:08;;;;;;;5.13;2.42;;;14.50;52.10;;;;;;5068279;28;20408;-71
2023/09/01 07:46:33;;;;;;;6.07;2.93;;;14.60;51.30;;;;;;5075529;28;20414;-71
2023/09/01 07:49:00;;;;;;;6.20;2.45;;;14.70;51.60;;;;;;5067959;28;20410;-72
2023/09/01 07:51:26;;;;;;;5.35;2.20;;;14.80;51.80;;;;;;5067760;28;20441;-72
2023/09/01 07:53:54;;;;;;;5.83;2.37;;;14.80;48.40;;;;;;5050206;28;20664;-72
2023/09/01 07:56:20;;;;;;;5.40;2.40;;;14.90;47.80;;;;;;5068207;28;20691;-72
2023/09/01 07:58:46;;;;;;;5.35;2.60;;;15.00;49.60;;;;;;5068414;28;20403;-72
2023/09/01 08:01:11;;;;;;;4.47;2.13;;;15.20;48.90;;;;;;5064230;28;20467;-72
2023/09/01 08:03:37;;;;;;;7.93;2.30;;;15.30;46.30;;;;;;5062401;28;20435;-72
2023/09/01 08:06:04;;;;;;;4.75;2.38;;;15.40;43.20;;;;;;5067345;28;20411;-72
2023/09/01 08:08:30;;;;;;;5.28;2.38;;;15.50;39.30;;;;;;5067780;28;21012;-72
2023/09/01 08:10:55;;;;;;;5.07;2.08;;;15.60;38.50;;;;;;5067379;28;20463;-71
2023/09/01 08:13:22;;;;;;;5.40;1.85;;;15.70;38.30;;;;;;5049759;28;20458;-72
2023/09/01 08:15:48;;;;;;;4.80;2.20;;;15.80;33.30;;;;;;5067699;28;20456;-72
2023/09/01 08:18:13;;;;;;;4.10;1.75;;;15.90;28.30;;;;;;5067296;28;20407;-70
2023/09/01 08:20:40;;;;;;;4.03;1.80;;;15.90;27.70;;;;;;5067555;28;20469;-70
2023/09/01 08:23:06;;;;;;;3.45;1.63;;;16.00;23.40;;;;;;5066330;28;20963;-70
2023/09/01 08:25:32;;;;;;;4.03;1.87;;;16.00;20.90;;;;;;5066702;28;20404;-71
2023/09/01 08:27:58;;;;;;;5.13;1.60;;;16.10;19.30;;;;;;5042705;28;20416;-71
2023/09/01 08:30:26;;;;;;;4.30;1.38;;;16.20;21.40;;;;;;5066295;28;20530;-71
2023/09/01 08:32:52;;;;;;;5.83;1.73;;;16.30;19.00;;;;;;5066067;28;20426;-71
2023/09/01 08:35:18;;;;;;;2.97;1.27;;;16.30;16.80;;;;;;5073963;28;20774;-71
2023/09/01 08:37:43;;;;;;;4.78;1.30;;;16.40;14.10;;;;;;5064044;28;20437;-71
2023/09/01 08:40:10;;;;;;;4.40;1.50;;;16.50;11.60;;;;;;5063651;28;20963;-71
2023/09/01 08:42:43;;;;;;;3.92;1.33;;;16.60;9.90;;;;;;5056033;28;20399;-71
2023/09/01 08:45:09;;;;;;;3.95;1.65;;;16.70;5.70;;;;;;5056354;28;20488;-71
2023/09/01 08:47:42;;;;;;;3.95;1.48;;;16.70;2.20;;;;;;5053980;28;20464;-71
2023/09/01 08:50:08;;;;;;;4.10;1.50;;;16.80;1.00;;;;;;5074998;28;20458;-71
2023/09/01 08:52:35;;;;;;;6.93;1.70;;;16.90;1.00;;;;;;5075116;28;20403;-71
2023/09/01 08:55:02;;;;;;;5.53;1.67;;;16.90;1.00;;;;;;5081691;28;21005;-71
2023/09/01 08:57:27;;;;;;;5.00;1.88;;;17.00;1.00;;;;;;5077585;28;20411;-71
2023/09/01 08:59:53;;;;;;;6.20;2.00;;;17.10;1.00;;;;;;5058591;28;20413;-71
2023/09/01 09:02:18;;;;;;;5.90;1.90;;;17.10;1.00;;;;;;5068802;28;20417;-71
2023/09/01 09:04:47;;;;;;;5.97;1.90;;;17.20;1.00;;;;;;5081027;28;20398;-71
2023/09/01 09:07:18;;;;;;;4.88;1.70;;;17.20;1.00;;;;;;5077458;28;20880;-71
2023/09/01 09:09:55;;;;;;;5.57;1.80;;;17.20;1.00;;;;;;5065856;28;20401;-71
2023/09/01 09:12:22;;;;;;;4.40;1.75;;;17.20;1.00;;;;;;5074667;28;20450;-71
2023/09/01 09:14:52;;;;;;;4.80;1.60;;;17.30;1.00;;;;;;5087335;28;20768;-71
2023/09/01 09:17:23;;;;;;;6.35;1.88;;;17.40;1.00;;;;;;5083165;28;20401;-71
2023/09/01 09:19:59;;;;;;;5.50;1.77;;;17.50;1.00;;;;;;5067632;28;20482;-71
2023/09/01 09:22:25;;;;;;;4.88;1.60;;;17.50;1.00;;;;;;5083727;28;20430;-71
2023/09/01 09:24:50;;;;;;;5.80;1.58;;;17.50;1.00;;;;;;5059695;28;20441;-72
2023/09/01 09:27:17;;;;;;;3.30;1.25;;;17.50;1.00;;;;;;5058606;28;20433;-72
2023/09/01 09:29:45;;;;;;;6.55;1.50;;;17.50;1.00;;;;;;5072969;28;20407;-71
2023/09/01 09:32:17;;;;;;;6.95;1.50;;;17.50;1.00;;;;;;5082604;28;20487;-71
2023/09/01 09:35:02;;;;;;;4.63;1.23;;;17.50;1.00;;;;;;5080400;28;20857;-71
2023/09/01 09:37:28;;;;;;;4.55;1.33;;;17.60;1.00;;;;;;5071696;28;20442;-71
2023/09/01 09:40:17;;;;;;;6.87;1.30;;;17.60;1.00;;;;;;5078462;28;20434;-71
2023/09/01 09:42:45;;;;;;;4.60;1.40;;;17.60;1.00;;;;;;5085114;28;20866;-71
2023/09/01 09:45:24;;;;;;;4.13;1.02;;;17.70;1.00;;;;;;5074920;28;20429;-72
2023/09/01 09:47:51;;;;;;;5.75;1.13;;;17.70;1.00;;;;;;5073369;28;20418;-71
2023/09/01 09:50:17;;;;;;;4.40;1.00;;;17.80;1.00;;;;;;5067873;28;20802;-72
2023/09/01 09:52:49;;;;;;;2.53;0.80;;;17.90;1.00;;;;;;5083182;28;20404;-71
2023/09/01 09:55:23;;;;;;;3.35;0.82;;;18.10;1.00;;;;;;5068138;28;20729;-72
2023/09/01 09:57:50;;;;;;;3.35;0.85;;;18.20;1.00;;;;;;5081740;28;20504;-72
2023/09/01 10:00:19;;;;;;;2.60;0.60;;;18.40;1.00;;;;;;5060026;28;20407;-72
2023/09/01 10:02:55;;;;;;;4.57;1.30;;;18.50;1.00;;;;;;5061182;28;21156;-71
2023/09/01 10:05:23;;;;;;;3.70;1.42;;;18.60;1.00;;;;;;5083711;28;20398;-71
2023/09/01 10:07:49;;;;;;;5.03;1.08;;;18.70;1.00;;;;;;5083287;28;20397;-72
2023/09/01 10:10:14;;;;;;;3.30;1.25;;;18.70;99.90;;;;;;5085351;28;20405;-71
2023/09/01 10:12:40;;;;;;;4.00;1.17;;;18.70;99.90;;;;;;5084454;28;20402;-71
2023/09/01 10:15:09;;;;;;;4.05;1.02;;;18.70;99.90;;;;;;5057986;28;20403;-71
2023/09/01 10:17:37;;;;;;;1.90;0.70;;;18.70;99.90;;;;;;5084537;28;20402;-71
2023/09/01 10:20:06;;;;;;;2.65;0.90;;;18.80;99.90;;;;;;5087277;28;20764;-71
2023/09/01 10:22:38;;;;;;;2.95;0.80;;;18.80;99.90;;;;;;5075196;28;20855;-71
2023/09/01 10:25:10;;;;;;;4.65;0.98;;;18.90;99.90;;;;;;5069296;28;20762;-70
2023/09/01 10:27:36;;;;;;;1.97;0.80;;;19.00;99.90;;;;;;5049018;28;20449;-73
2023/09/01 10:30:21;;;;;;;2.10;0.43;;;19.10;99.90;;;;;;5063157;28;20404;-71
2023/09/01 10:32:46;;;;;;;2.83;0.52;;;19.20;99.90;;;;;;5054795;28;20499;-71
2023/09/01 10:35:12;;;;;;;2.57;0.50;;;19.30;99.90;;;;;;5075183;28;21368;-71
2023/09/01 10:37:38;;;;;;;2.40;0.82;;;19.60;99.90;;;;;;5035050;28;20408;-71
2023/09/01 10:40:59;;;;;;;3.63;0.77;;;19.90;99.90;;;;;;5075605;28;20463;-71
2023/09/01 10:43:41;;;;;;;2.80;0.90;;;20.50;1.00;;;;;;5030552;28;20418;-71
2023/09/01 10:46:13;;;;;;;3.70;1.25;;;20.90;87.20;;;;;;5064905;28;20416;-71
2023/09/01 10:48:57;;;;;;;2.13;1.02;;;21.10;1.00;;;;;;5069909;28;20404;-71
2023/09/01 10:51:34;;;;;;;5.28;1.73;;;21.20;99.90;;;;;;5072006;28;20433;-72
2023/09/01 10:54:20;;;;;;;3.00;0.80;;;21.20;9.90;;;;;;5073633;28;20391;-71
2023/09/01 10:56:57;;;;;;;2.50;1.00;;;21.30;99.90;;;;;;5069651;28;20468;-72
2023/09/01 10:59:31;;;;;;;6.25;1.10;;;21.20;99.90;;;;;;5057234;28;20487;-72
2023/09/01 11:02:17;;;;;;;2.25;1.00;;;21.20;99.90;;;;;;5064489;28;20448;-72
2023/09/01 11:04:43;;;;;;;3.67;0.98;;;21.30;99.90;;;;;;5057036;28;20418;-72
2023/09/01 11:07:08;;;;;;;4.00;0.90;;;21.50;99.90;;;;;;5068819;28;20419;-72
2023/09/01 11:09:34;;;;;;;2.10;0.90;;;21.80;99.90;;;;;;5072567;28;20405;-72
2023/09/01 11:12:07;;;;;;;1.83;0.50;;;22.20;1.00;;;;;;5073379;28;20516;-72
2023/09/01 11:14:34;;;;;;;1.50;0.50;;;22.70;99.90;;;;;;5077164;28;20436;-72
2023/09/01 11:17:01;;;;;;;2.65;0.50;;;23.10;1.00;;;;;;5073756;28;20403;-71
2023/09/01 11:19:27;;;;;;;1.80;0.50;;;23.50;85.80;;;;;;5068680;28;20401;-71
2023/09/01 11:21:53;;;;;;;3.35;0.80;;;24.00;1.00;;;;;;5055364;28;20504;-71
2023/09/01 11:24:22;;;;;;;2.70;0.73;;;24.50;99.90;;;;;;5075103;28;21275;-72
2023/09/01 11:26:51;;;;;;;4.18;0.85;;;24.90;99.90;;;;;;5054428;28;20802;-72
2023/09/01 11:29:18;;;;;;;3.03;0.60;;;25.30;99.90;;;;;;5075677;28;20411;-72
2023/09/01 11:31:44;;;;;;;4.45;0.80;;;25.30;99.90;;;;;;5071860;28;20438;-72
2023/09/01 11:34:12;;;;;;;3.80;0.80;;;25.00;99.90;;;;;;5056557;28;20404;-72
2023/09/01 11:36:45;;;;;;;3.25;1.05;;;24.90;99.90;;;;;;5071498;28;20789;-72
2023/09/01 11:39:11;;;;;;;4.17;1.00;;;24.70;99.90;;;;;;5074023;28;20395;-72
2023/09/01 11:41:38;;;;;;;3.45;0.90;;;24.50;99.90;;;;;;5069878;28;20399;-71
2023/09/01 11:44:04;;;;;;;2.70;1.00;;;24.30;98.50;;;;;;5073968;28;20442;-71
2023/09/01 11:46:34;;;;;;;4.03;1.10;;;24.20;99.90;;;;;;5073733;28;20939;-72
2023/09/01 11:49:01;;;;;;;3.50;1.13;;;24.20;96.50;;;;;;5073488;28;20532;-71
2023/09/01 11:51:33;;;;;;;3.15;1.20;;;24.40;88.40;;;;;;5074580;28;20440;-71
2023/09/01 11:53:59;;;;;;;4.32;1.30;;;24.90;80.50;;;;;;5067629;28;20412;-72
2023/09/01 11:56:25;;;;;;;5.55;1.25;;;25.40;79.80;;;;;;5072173;28;20394;-72
2023/09/01 11:58:52;;;;;;;2.43;1.17;;;25.90;61.00;;;;;;5069042;28;20822;-72
2023/09/01 12:01:20;;;;;;;3.95;1.00;;;26.40;42.70;;;;;;5072502;28;20432;-72
2023/09/01 12:03:51;;;;;;;4.80;0.70;;;26.70;27.90;;;;;;5073829;28;20604;-71
2023/09/01 12:06:21;;;;;;;3.90;1.03;;;27.00;1.00;;;;;;5078610;28;20430;-72
2023/09/01 12:08:47;;;;;;;3.73;0.90;;;27.20;1.00;;;;;;5050260;28;20494;-72
2023/09/01 12:11:13;;;;;;;4.03;0.90;;;27.30;1.00;;;;;;5070425;28;21105;-72
2023/09/01 12:13:40;;;;;;;3.07;0.87;;;27.30;1.00;;;;;;5066199;28;20429;-72
2023/09/01 12:16:06;;;;;;;2.67;0.73;;;27.20;1.00;;;;;;5077463;28;20488;-72
2023/09/01 12:18:38;;;;;;;3.70;0.93;;;27.00;1.00;;;;;;5072956;28;20495;-72
2023/09/01 12:21:07;;;;;;;1.93;0.87;;;26.60;1.00;;;;;;5077338;28;20401;-72
2023/09/01 12:23:37;;;;;;;3.20;1.10;;;26.10;1.00;;;;;;5074627;28;20486;-72
2023/09/01 12:26:03;;;;;;;2.38;0.70;;;25.80;1.00;;;;;;5061769;28;20403;-71
2023/09/01 12:28:31;;;;;;;3.50;1.05;;;25.70;1.00;;;;;;5075040;28;20403;-71
2023/09/01 12:30:57;;;;;;;3.47;0.90;;;25.60;1.00;;;;;;5067514;28;20424;-71
2023/09/01 12:33:23;;;;;;;3.35;0.80;;;25.30;1.00;;;;;;5057272;28;20444;-71
2023/09/01 12:35:50;;;;;;;4.57;1.20;;;24.90;1.00;;;;;;5055811;28;20419;-72
2023/09/01 12:38:16;;;;;;;2.83;1.20;;;24.50;1.00;;;;;;5068856;28;20399;-71
2023/09/01 12:40:42;;;;;;;4.90;1.15;;;24.10;1.00;;;;;;5081342;28;21275;-71
2023/09/01 12:43:08;;;;;;;3.10;0.80;;;23.80;1.00;;;;;;5070657;28;20494;-71
2023/09/01 12:45:33;;;;;;;2.47;0.88;;;24.10;1.00;;;;;;5066962;28;20403;-71
2023/09/01 12:47:59;;;;;;;3.23;0.97;;;24.70;1.00;;;;;;5055716;28;20399;-71
2023/09/01 12:50:26;;;;;;;4.15;1.10;;;25.40;1.00;;;;;;5078204;28;20411;-72